createdAt,value
2022-07-29T00:01:43.884Z,21.20
2022-07-29T00:04:14.047Z,21.10
2022-07-29T00:06:42.994Z,21.10
2022-07-29T00:09:11.270Z,21.10
2022-07-29T00:11:39.551Z,21.10
2022-07-29T00:14:07.674Z,21.10
2022-07-29T00:16:35.898Z,21.10
2022-07-29T00:19:04.865Z,21.10
2022-07-29T00:21:34.263Z,21.10
2022-07-29T00:24:02.339Z,21.10
2022-07-29T00:26:32.680Z,21.10
2022-07-29T00:29:31.139Z,21.10
2022-07-29T00:31:49.615Z,21.10
2022-07-29T00:34:35.531Z,21.10
2022-07-29T00:37:04.948Z,21.10
2022-07-29T00:39:35.874Z,21.10
2022-07-29T00:42:05.591Z,21.20
2022-07-29T00:44:38.681Z,21.20
2022-07-29T00:47:07.407Z,21.20
2022-07-29T00:49:36.283Z,21.20
2022-07-29T00:52:06.575Z,21.20
2022-07-29T00:54:37.428Z,21.10
2022-07-29T00:57:12.884Z,21.10
2022-07-29T00:59:41.357Z,21.00
2022-07-29T01:02:09.630Z,21.00
2022-07-29T01:04:37.778Z,20.90
2022-07-29T01:07:07.920Z,21.00
2022-07-29T01:09:45.856Z,21.00
2022-07-29T01:12:17.184Z,21.00
2022-07-29T01:14:46.363Z,21.00
2022-07-29T01:17:19.783Z,20.90
2022-07-29T01:19:54.979Z,20.90
2022-07-29T01:22:39.111Z,20.90
2022-07-29T01:25:42.558Z,20.90
2022-07-29T01:28:56.662Z,20.90
2022-07-29T01:31:33.647Z,20.80
2022-07-29T01:34:08.018Z,20.80
2022-07-29T01:36:39.025Z,20.70
2022-07-29T01:39:10.628Z,20.70
2022-07-29T01:41:42.186Z,20.70
2022-07-29T01:44:17.430Z,20.70
2022-07-29T01:46:52.500Z,20.70
2022-07-29T01:49:27.649Z,20.70
2022-07-29T01:51:59.782Z,20.70
2022-07-29T01:54:34.145Z,20.70
2022-07-29T01:57:03.781Z,20.70
2022-07-29T01:59:32.394Z,20.80
2022-07-29T02:02:03.506Z,20.80
2022-07-29T02:04:34.069Z,20.80
2022-07-29T02:07:05.639Z,20.80
2022-07-29T02:09:37.529Z,20.60
2022-07-29T02:12:07.936Z,20.50
2022-07-29T02:14:39.455Z,20.50
2022-07-29T02:17:09.759Z,20.40
2022-07-29T02:19:40.545Z,20.40
2022-07-29T02:22:08.850Z,20.40
2022-07-29T02:24:39.122Z,20.30
2022-07-29T02:27:07.507Z,20.30
2022-07-29T02:29:36.661Z,20.20
2022-07-29T02:32:06.758Z,20.20
2022-07-29T02:34:37.535Z,20.10
2022-07-29T02:37:06.332Z,20.10
2022-07-29T02:39:36.229Z,20.10
2022-07-29T02:42:08.225Z,20.10
2022-07-29T02:44:36.968Z,20.10
2022-07-29T02:47:11.799Z,20.20
2022-07-29T02:49:48.812Z,20.20
2022-07-29T02:52:23.914Z,20.20
2022-07-29T02:54:57.011Z,20.20
2022-07-29T02:57:34.832Z,20.10
2022-07-29T03:00:06.709Z,20.10
2022-07-29T03:02:38.526Z,20.00
2022-07-29T03:05:11.312Z,20.00
2022-07-29T03:07:55.450Z,20.00
2022-07-29T03:10:24.418Z,19.90
2022-07-29T03:12:53.032Z,19.90
2022-07-29T03:15:22.081Z,19.90
2022-07-29T03:17:52.787Z,19.90
2022-07-29T03:20:22.758Z,19.90
2022-07-29T03:22:51.309Z,19.90
2022-07-29T03:25:21.492Z,19.90
2022-07-29T03:27:50.322Z,19.90
2022-07-29T03:30:21.826Z,20.00
2022-07-29T03:32:52.562Z,20.00
2022-07-29T03:35:22.481Z,20.00
2022-07-29T03:37:51.024Z,20.00
2022-07-29T03:40:24.069Z,19.90
2022-07-29T03:42:53.563Z,19.90
2022-07-29T03:45:22.591Z,19.90
2022-07-29T03:48:00.391Z,19.90
2022-07-29T03:50:32.087Z,19.90
2022-07-29T03:53:00.629Z,19.90
2022-07-29T03:55:30.957Z,19.90
2022-07-29T03:57:59.801Z,19.90
2022-07-29T04:00:28.835Z,19.90
2022-07-29T04:02:56.939Z,19.90
2022-07-29T04:05:25.044Z,19.90
2022-07-29T04:07:54.486Z,19.90
2022-07-29T04:10:28.345Z,19.90
2022-07-29T04:13:00.409Z,19.90
2022-07-29T04:15:31.305Z,19.80
2022-07-29T04:18:00.350Z,19.80
2022-07-29T04:20:28.639Z,19.80
2022-07-29T04:22:58.053Z,19.70
2022-07-29T04:25:26.102Z,19.70
2022-07-29T04:28:02.875Z,19.80
2022-07-29T04:30:31.593Z,19.80
2022-07-29T04:32:59.780Z,19.80
2022-07-29T04:35:27.810Z,19.80
2022-07-29T04:37:57.261Z,19.80
2022-07-29T04:40:25.457Z,19.80
2022-07-29T04:42:53.504Z,19.80
2022-07-29T04:45:22.899Z,19.80
2022-07-29T04:47:51.086Z,19.70
2022-07-29T04:50:19.202Z,19.70
2022-07-29T04:52:47.249Z,19.70
2022-07-29T04:55:16.821Z,19.70
2022-07-29T04:57:44.889Z,19.70
2022-07-29T05:00:13.796Z,19.70
2022-07-29T05:02:41.967Z,19.70
2022-07-29T05:05:10.527Z,19.80
2022-07-29T05:07:38.674Z,19.80
2022-07-29T05:10:07.713Z,19.80
2022-07-29T05:12:37.127Z,19.80
2022-07-29T05:15:05.814Z,19.80
2022-07-29T05:17:33.853Z,19.80
2022-07-29T05:20:01.980Z,19.80
2022-07-29T05:22:30.046Z,19.80
2022-07-29T05:24:58.064Z,19.80
2022-07-29T05:27:26.190Z,19.70
2022-07-29T05:29:55.657Z,19.80
2022-07-29T05:32:23.723Z,19.80
2022-07-29T05:34:52.002Z,19.80
2022-07-29T05:37:20.852Z,19.90
2022-07-29T05:39:50.859Z,19.90
2022-07-29T05:42:25.419Z,19.90
2022-07-29T05:44:55.084Z,19.90
2022-07-29T05:47:23.495Z,19.90
2022-07-29T05:49:51.828Z,19.90
2022-07-29T05:52:20.128Z,19.90
2022-07-29T05:54:48.182Z,19.90
2022-07-29T05:57:19.699Z,19.90
2022-07-29T05:59:48.056Z,20.00
2022-07-29T06:02:18.411Z,20.00
2022-07-29T06:04:46.589Z,20.10
2022-07-29T06:07:14.709Z,20.20
2022-07-29T06:09:42.878Z,20.20
2022-07-29T06:12:11.229Z,20.20
2022-07-29T06:14:39.542Z,20.20
2022-07-29T06:17:07.722Z,20.30
2022-07-29T06:19:38.211Z,20.30
2022-07-29T06:22:06.448Z,20.30
2022-07-29T06:24:34.540Z,20.30
2022-07-29T06:27:02.626Z,20.40
2022-07-29T06:29:30.738Z,20.40
2022-07-29T06:31:58.828Z,20.50
2022-07-29T06:34:26.876Z,20.40
2022-07-29T06:36:56.314Z,20.40
2022-07-29T06:39:24.381Z,20.40
2022-07-29T06:41:52.683Z,20.40
2022-07-29T06:44:26.474Z,20.50
2022-07-29T06:46:55.703Z,20.40
2022-07-29T06:49:25.319Z,20.40
2022-07-29T06:51:53.525Z,20.30
2022-07-29T06:54:23.588Z,20.30
2022-07-29T06:56:51.622Z,20.30
2022-07-29T06:59:21.660Z,20.30
2022-07-29T07:01:54.323Z,20.30
2022-07-29T07:04:22.485Z,20.30
2022-07-29T07:06:50.635Z,20.40
2022-07-29T07:09:23.110Z,20.40
2022-07-29T07:11:51.162Z,20.40
2022-07-29T07:14:19.679Z,20.50
2022-07-29T07:16:48.494Z,20.60
2022-07-29T07:19:21.159Z,20.70
2022-07-29T07:21:49.303Z,20.80
2022-07-29T07:24:17.696Z,20.80
2022-07-29T07:26:58.382Z,20.80
2022-07-29T07:29:26.511Z,20.80
2022-07-29T07:31:58.928Z,20.80
2022-07-29T07:34:29.703Z,20.80
2022-07-29T07:36:58.038Z,20.90
2022-07-29T07:39:27.002Z,20.90
2022-07-29T07:41:56.447Z,20.90
2022-07-29T07:44:24.595Z,20.90
2022-07-29T07:46:52.672Z,20.90
2022-07-29T07:49:21.051Z,20.90
2022-07-29T07:51:50.847Z,20.90
2022-07-29T07:54:20.815Z,20.90
2022-07-29T07:56:53.104Z,20.90
2022-07-29T07:59:22.979Z,21.00
2022-07-29T08:01:55.764Z,20.90
2022-07-29T08:04:28.374Z,20.90
2022-07-29T08:06:58.266Z,20.90
2022-07-29T08:09:29.651Z,20.90
2022-07-29T08:11:59.107Z,20.90
2022-07-29T08:14:28.456Z,20.90
2022-07-29T08:16:56.586Z,20.90
2022-07-29T08:19:24.722Z,20.90
2022-07-29T08:21:54.670Z,20.90
2022-07-29T08:24:41.434Z,20.90
2022-07-29T08:27:26.959Z,20.90
2022-07-29T08:30:00.391Z,20.90
2022-07-29T08:32:51.249Z,20.80
2022-07-29T08:35:17.509Z,20.80
2022-07-29T08:37:45.547Z,20.80
2022-07-29T08:40:15.089Z,20.90
2022-07-29T08:42:43.227Z,21.00
2022-07-29T08:45:13.194Z,21.00
2022-07-29T08:47:42.070Z,21.00
2022-07-29T08:50:11.262Z,21.00
2022-07-29T08:52:41.826Z,21.10
2022-07-29T08:55:11.749Z,21.10
2022-07-29T08:57:49.632Z,21.20
2022-07-29T09:00:22.375Z,21.20
2022-07-29T09:02:58.014Z,21.30
2022-07-29T09:05:27.483Z,21.40
2022-07-29T09:07:55.801Z,21.50
2022-07-29T09:10:24.195Z,21.50
2022-07-29T09:12:53.239Z,21.60
2022-07-29T09:15:23.062Z,21.50
2022-07-29T09:17:51.853Z,21.50
2022-07-29T09:20:23.153Z,21.50
2022-07-29T09:22:53.631Z,21.50
2022-07-29T09:25:34.950Z,21.50
2022-07-29T09:28:08.745Z,21.50
2022-07-29T09:30:51.583Z,21.50
2022-07-29T09:33:19.767Z,21.50
2022-07-29T09:35:56.902Z,21.50
2022-07-29T09:38:25.527Z,21.50
2022-07-29T09:41:05.486Z,21.60
2022-07-29T09:43:35.049Z,21.60
2022-07-29T09:46:13.945Z,21.70
2022-07-29T09:48:42.412Z,21.80
2022-07-29T09:51:21.340Z,22.00
2022-07-29T09:53:53.054Z,22.10
2022-07-29T09:56:21.795Z,22.10
2022-07-29T09:58:50.091Z,22.10
2022-07-29T10:01:30.034Z,22.10
2022-07-29T10:03:59.965Z,22.00
2022-07-29T10:06:28.043Z,22.10
2022-07-29T10:08:56.428Z,22.10
2022-07-29T10:11:24.859Z,22.10
2022-07-29T10:14:13.016Z,22.30
2022-07-29T10:16:42.526Z,22.20
2022-07-29T10:19:10.626Z,22.10
2022-07-29T10:21:40.706Z,21.90
2022-07-29T10:24:15.102Z,21.90
2022-07-29T10:26:48.019Z,21.90
2022-07-29T10:29:16.082Z,22.00
2022-07-29T10:31:54.276Z,22.00
2022-07-29T10:37:55.040Z,21.90
2022-07-29T10:40:53.453Z,22.10
2022-07-29T10:43:28.119Z,22.10
2022-07-29T10:45:59.835Z,22.20
2022-07-29T10:48:29.698Z,22.20
2022-07-29T10:50:59.795Z,22.20
2022-07-29T10:53:48.719Z,22.10
2022-07-29T10:56:26.852Z,22.20
2022-07-29T10:59:36.406Z,22.40
2022-07-29T11:02:41.854Z,22.50
2022-07-29T11:05:15.435Z,22.60
2022-07-29T11:08:29.121Z,22.70
2022-07-29T11:11:32.989Z,22.80
2022-07-29T11:14:03.077Z,23.00
2022-07-29T11:17:06.897Z,23.00
2022-07-29T11:19:37.138Z,23.10
2022-07-29T11:22:12.242Z,23.30
2022-07-29T11:24:50.095Z,23.40
2022-07-29T11:27:23.005Z,23.40
2022-07-29T11:29:56.240Z,23.50
2022-07-29T11:32:29.337Z,23.50
2022-07-29T11:35:38.316Z,23.60
2022-07-29T11:38:28.619Z,23.60
2022-07-29T11:41:25.917Z,23.70
2022-07-29T11:43:55.882Z,23.70
2022-07-29T11:46:47.484Z,23.80
2022-07-29T11:49:20.566Z,23.90
2022-07-29T11:51:53.596Z,23.80
2022-07-29T11:54:28.718Z,23.90
2022-07-29T11:56:56.961Z,24.10
2022-07-29T11:59:33.148Z,24.10
2022-07-29T12:02:36.400Z,24.00
2022-07-29T12:04:52.381Z,23.90
2022-07-29T12:07:20.945Z,24.10
2022-07-29T12:09:56.978Z,24.10
2022-07-29T12:12:26.074Z,24.20
2022-07-29T12:14:56.190Z,24.10
2022-07-29T12:17:30.553Z,24.10
2022-07-29T12:20:00.851Z,24.20
2022-07-29T12:22:33.350Z,24.30
2022-07-29T12:25:32.544Z,24.50
2022-07-29T12:28:03.352Z,24.60
2022-07-29T12:30:41.606Z,24.60
2022-07-29T12:33:23.062Z,24.60
2022-07-29T12:36:03.802Z,24.60
2022-07-29T12:38:38.342Z,24.60
2022-07-29T12:41:07.910Z,24.70
2022-07-29T12:43:36.181Z,24.70
2022-07-29T12:46:15.130Z,24.80
2022-07-29T12:48:44.726Z,24.80
2022-07-29T12:51:15.336Z,24.90
2022-07-29T12:53:43.745Z,25.10
2022-07-29T12:56:41.837Z,25.30
2022-07-29T12:59:18.665Z,25.20
2022-07-29T13:01:48.979Z,25.30
2022-07-29T13:04:27.766Z,25.50
2022-07-29T13:07:02.269Z,25.40
2022-07-29T13:09:40.105Z,25.30
2022-07-29T13:12:11.849Z,25.30
2022-07-29T13:14:41.852Z,25.30
2022-07-29T13:17:11.656Z,25.50
2022-07-29T13:19:42.333Z,25.70
2022-07-29T13:22:10.974Z,25.80
2022-07-29T13:24:50.144Z,25.80
2022-07-29T13:27:20.152Z,25.80
2022-07-29T13:29:49.694Z,25.90
2022-07-29T13:32:17.870Z,26.10
2022-07-29T13:34:51.942Z,25.90
2022-07-29T13:37:20.941Z,26.10
2022-07-29T13:39:52.849Z,26.10
2022-07-29T13:42:22.777Z,26.00
2022-07-29T13:44:52.561Z,26.10
2022-07-29T13:47:20.910Z,25.80
2022-07-29T13:49:49.197Z,25.70
2022-07-29T13:52:17.481Z,25.90
2022-07-29T13:54:45.851Z,26.10
2022-07-29T13:57:14.375Z,26.40
2022-07-29T13:59:44.371Z,26.40
2022-07-29T14:02:13.390Z,26.40
2022-07-29T14:04:43.995Z,26.80
2022-07-29T14:07:16.390Z,27.00
2022-07-29T14:09:46.447Z,26.90
2022-07-29T14:12:14.735Z,26.90
2022-07-29T14:14:44.206Z,27.30
2022-07-29T14:17:15.546Z,27.10
2022-07-29T14:19:44.378Z,27.20
2022-07-29T14:22:12.527Z,27.50
2022-07-29T14:24:58.915Z,27.80
2022-07-29T14:27:37.519Z,27.80
2022-07-29T14:30:10.332Z,27.90
2022-07-29T14:32:38.639Z,28.00
2022-07-29T14:35:08.969Z,27.80
2022-07-29T14:37:40.249Z,27.50
2022-07-29T14:40:11.757Z,27.50
2022-07-29T14:42:40.550Z,27.50
2022-07-29T14:45:11.950Z,27.40
2022-07-29T14:47:41.485Z,27.40
2022-07-29T14:50:11.244Z,27.20
2022-07-29T14:52:42.091Z,27.10
2022-07-29T14:55:16.521Z,27.40
2022-07-29T14:57:50.939Z,27.30
2022-07-29T15:00:21.855Z,27.70
2022-07-29T15:03:06.527Z,27.80
2022-07-29T15:05:41.192Z,28.00
2022-07-29T15:08:10.394Z,28.30
2022-07-29T15:10:38.762Z,28.60
2022-07-29T15:13:06.939Z,29.00
2022-07-29T15:15:36.596Z,29.70
2022-07-29T15:18:04.917Z,29.80
2022-07-29T15:20:33.073Z,29.10
2022-07-29T15:23:16.553Z,28.50
2022-07-29T15:29:05.796Z,27.50
2022-07-29T15:31:53.826Z,27.70
2022-07-29T15:34:27.335Z,28.10
2022-07-29T15:39:51.494Z,29.20
2022-07-29T15:42:22.555Z,29.80
2022-07-29T15:44:50.781Z,29.60
2022-07-29T15:47:20.322Z,29.00
2022-07-29T15:49:49.506Z,28.50
2022-07-29T15:52:26.060Z,28.30
2022-07-29T15:54:55.506Z,28.20
2022-07-29T15:57:24.532Z,28.00
2022-07-29T15:59:53.028Z,27.80
2022-07-29T16:02:22.545Z,27.70
2022-07-29T16:04:50.710Z,27.40
2022-07-29T16:07:19.248Z,27.40
2022-07-29T16:09:52.862Z,27.50
2022-07-29T16:12:22.476Z,27.30
2022-07-29T16:14:52.063Z,27.00
2022-07-29T16:17:22.060Z,26.80
2022-07-29T16:19:50.373Z,26.50
2022-07-29T16:22:20.220Z,26.50
2022-07-29T16:24:48.321Z,26.30
2022-07-29T16:27:16.666Z,26.20
2022-07-29T16:29:46.757Z,26.10
2022-07-29T16:32:14.802Z,26.00
2022-07-29T16:34:51.831Z,26.00
2022-07-29T16:37:19.919Z,26.00
2022-07-29T16:39:48.561Z,26.00
2022-07-29T16:42:30.919Z,25.90
2022-07-29T16:45:05.803Z,25.80
2022-07-29T16:47:33.899Z,25.80
2022-07-29T16:50:04.499Z,25.80
2022-07-29T16:52:33.038Z,25.80
2022-07-29T16:55:01.977Z,25.90
2022-07-29T16:57:30.529Z,25.80
2022-07-29T16:59:58.663Z,25.80
2022-07-29T17:02:27.528Z,25.80
2022-07-29T17:05:02.760Z,25.60
2022-07-29T17:07:33.247Z,25.70
2022-07-29T17:10:05.135Z,25.70
2022-07-29T17:12:34.167Z,25.70
2022-07-29T17:15:05.960Z,25.50
2022-07-29T17:17:39.387Z,25.40
2022-07-29T17:20:26.788Z,25.40
2022-07-29T17:22:59.621Z,25.50
2022-07-29T17:25:28.390Z,25.40
2022-07-29T17:28:00.792Z,25.40
2022-07-29T17:30:35.509Z,25.50
2022-07-29T17:33:03.764Z,25.50
2022-07-29T17:35:49.155Z,25.60
2022-07-29T17:38:18.609Z,25.50
2022-07-29T17:40:48.051Z,25.50
2022-07-29T17:43:16.083Z,25.60
2022-07-29T17:45:49.558Z,25.50
2022-07-29T17:48:19.059Z,25.50
2022-07-29T17:50:47.552Z,25.50
2022-07-29T17:53:16.874Z,25.50
2022-07-29T17:55:48.595Z,25.60
2022-07-29T17:58:17.393Z,25.70
2022-07-29T18:00:45.761Z,25.70
2022-07-29T18:03:14.052Z,25.70
2022-07-29T18:05:42.509Z,25.70
2022-07-29T18:08:10.844Z,25.70
2022-07-29T18:10:39.068Z,25.60
2022-07-29T18:13:08.562Z,25.30
2022-07-29T18:15:36.597Z,25.20
2022-07-29T18:18:04.965Z,25.10
2022-07-29T18:20:33.156Z,25.10
2022-07-29T18:23:01.579Z,25.00
2022-07-29T18:25:29.925Z,25.10
2022-07-29T18:28:00.470Z,25.00
2022-07-29T18:30:33.267Z,25.00
2022-07-29T18:35:50.809Z,24.80
2022-07-29T18:38:19.348Z,24.80
2022-07-29T18:40:47.398Z,24.80
2022-07-29T18:43:15.489Z,24.70
2022-07-29T18:45:47.965Z,24.80
2022-07-29T18:48:16.234Z,24.70
2022-07-29T18:50:44.253Z,24.70
2022-07-29T18:53:12.391Z,24.70
2022-07-29T18:55:40.477Z,24.70
2022-07-29T18:58:08.527Z,24.60
2022-07-29T19:00:36.613Z,24.60
2022-07-29T19:03:06.205Z,24.50
2022-07-29T19:05:34.582Z,24.50
2022-07-29T19:08:02.814Z,24.50
2022-07-29T19:10:31.242Z,24.50
2022-07-29T19:12:59.377Z,24.40
2022-07-29T19:15:27.820Z,24.40
2022-07-29T19:18:00.957Z,24.40
2022-07-29T19:20:32.289Z,24.30
2022-07-29T19:23:00.634Z,24.30
2022-07-29T19:25:28.673Z,24.20
2022-07-29T19:27:58.215Z,24.20
2022-07-29T19:30:26.795Z,24.10
2022-07-29T19:32:54.922Z,24.10
2022-07-29T19:35:28.006Z,24.10
2022-07-29T19:37:58.883Z,24.10
2022-07-29T19:40:28.164Z,24.00
2022-07-29T19:43:04.820Z,24.00
2022-07-29T19:45:53.594Z,23.90
2022-07-29T19:48:21.701Z,23.90
2022-07-29T19:50:49.838Z,23.80
2022-07-29T19:53:19.639Z,23.80
2022-07-29T19:55:47.710Z,23.80
2022-07-29T19:58:22.492Z,23.80
2022-07-29T20:00:54.381Z,23.70
2022-07-29T20:03:22.660Z,23.80
2022-07-29T20:05:51.407Z,23.80
2022-07-29T20:08:21.012Z,23.70
2022-07-29T20:10:49.262Z,23.80
2022-07-29T20:13:18.269Z,23.70
2022-07-29T20:15:47.548Z,23.70
2022-07-29T20:18:16.342Z,23.70
2022-07-29T20:20:44.643Z,23.70
2022-07-29T20:23:14.316Z,23.70
2022-07-29T20:25:45.205Z,23.70
2022-07-29T20:28:13.518Z,23.60
2022-07-29T20:30:42.669Z,23.70
2022-07-29T20:33:11.615Z,23.70
2022-07-29T20:35:40.943Z,23.60
2022-07-29T20:38:09.178Z,23.60
2022-07-29T20:40:38.676Z,23.60
2022-07-29T20:43:09.218Z,23.60
2022-07-29T20:45:41.049Z,23.60
2022-07-29T20:48:10.475Z,23.50
2022-07-29T20:50:39.154Z,23.40
2022-07-29T20:53:07.399Z,23.40
2022-07-29T20:55:35.542Z,23.40
2022-07-29T20:58:03.725Z,23.40
2022-07-29T21:00:33.245Z,23.40
2022-07-29T21:03:01.508Z,23.30
2022-07-29T21:05:29.936Z,23.30
2022-07-29T21:07:59.599Z,23.30
2022-07-29T21:10:31.492Z,23.20
2022-07-29T21:13:16.528Z,23.20
2022-07-29T21:15:49.321Z,23.20
2022-07-29T21:18:27.269Z,23.20
2022-07-29T21:20:55.569Z,23.20
2022-07-29T21:23:23.977Z,23.20
2022-07-29T21:25:53.533Z,23.10
2022-07-29T21:28:26.769Z,23.10
2022-07-29T21:30:58.525Z,23.10
2022-07-29T21:33:27.427Z,23.10
2022-07-29T21:38:44.097Z,23.00
2022-07-29T21:41:12.639Z,23.00
2022-07-29T21:43:42.239Z,23.00
2022-07-29T21:46:11.850Z,23.10
2022-07-29T21:48:44.240Z,23.00
2022-07-29T21:51:12.988Z,23.00
2022-07-29T21:53:41.140Z,22.90
2022-07-29T21:56:13.066Z,23.00
2022-07-29T21:58:43.534Z,22.90
2022-07-29T22:01:13.663Z,23.00
2022-07-29T22:03:42.007Z,23.00
2022-07-29T22:06:18.155Z,22.90
2022-07-29T22:08:47.922Z,23.00
2022-07-29T22:11:16.300Z,22.90
2022-07-29T22:13:44.779Z,22.90
2022-07-29T22:16:15.254Z,22.90
2022-07-29T22:18:48.589Z,22.90
2022-07-29T22:21:17.213Z,22.80
2022-07-29T22:23:45.286Z,22.80
2022-07-29T22:26:13.680Z,22.80
2022-07-29T22:28:43.454Z,22.80
2022-07-29T22:31:12.280Z,22.90
2022-07-29T22:33:42.122Z,22.80
2022-07-29T22:36:10.490Z,22.80
2022-07-29T22:38:38.701Z,22.80
2022-07-29T22:41:07.100Z,22.80
2022-07-29T22:43:36.579Z,22.70
2022-07-29T22:46:05.012Z,22.70
2022-07-29T22:48:33.276Z,22.70
2022-07-29T22:51:03.330Z,22.70
2022-07-29T22:53:31.756Z,22.60
2022-07-29T22:56:00.047Z,22.60
2022-07-29T22:58:28.324Z,22.50
2022-07-29T23:00:56.639Z,22.50
2022-07-29T23:03:25.005Z,22.40
2022-07-29T23:08:36.694Z,22.40
2022-07-29T23:11:05.105Z,22.30
2022-07-29T23:13:33.320Z,22.30
2022-07-29T23:16:02.341Z,22.30
2022-07-29T23:18:30.563Z,22.20
2022-07-29T23:20:58.892Z,22.20
2022-07-29T23:23:27.090Z,22.10
2022-07-29T23:26:02.091Z,22.10
2022-07-29T23:28:30.359Z,22.00
2022-07-29T23:30:58.845Z,21.90
2022-07-29T23:33:27.122Z,21.80
2022-07-29T23:35:57.893Z,21.70
2022-07-29T23:38:27.484Z,21.60
2022-07-29T23:40:59.326Z,21.60
2022-07-29T23:43:29.495Z,21.50
2022-07-29T23:45:58.078Z,21.50
2022-07-29T23:48:27.110Z,21.60
2022-07-29T23:50:55.353Z,21.60
2022-07-29T23:53:25.606Z,21.60
2022-07-29T23:55:54.089Z,21.60
2022-07-29T23:58:22.286Z,21.60
